Latest Weather Observations for Cape Grim

IDT60801

Issued at 4:05 pm EST Saturday 30 August 2014 (issued every 30 minutes, with the page automatically refreshed every 10 minutes)

About weather observations | Map of weather stations | Latest weather observations for TAS | Other Formats
Station Details ID: 091331 Name: CAPE GRIM Lat: -40.68 Lon: 144.69 Height: 86.0 m
Data from the previous 72 hours. | See also: Recent months at Cape Grim
Date/Time
EST
Temp
°C
App
Temp
°C
Dew
Point
Rel
Hum
%
Delta-T
°C
Wind Press
QNH
hPa
Press
MSL
hPa
Rain
since 9 am
mm
Dir
 
Spd
km/h
Gust
km/h
Spd
kts
Gust
kts
30/04:00pm 13.0 4.7 10.0 82 1.5 ENE 44 52 24 28 1022.1 1022.2 0.0
30/03:30pm 13.0 4.2 9.4 79 1.8 ENE 46 57 25 31 1022.3 1022.4 0.0
30/03:00pm 13.5 5.3 9.7 78 1.9 ENE 43 54 23 29 1022.6 1022.7 0.0
30/02:30pm 13.6 5.7 9.3 75 2.2 ENE 41 52 22 28 1023.1 1023.2 0.0
30/02:00pm 14.0 5.6 9.8 76 2.2 ENE 44 54 24 29 1023.3 1023.4 0.0
30/01:30pm 14.1 6.1 10.5 79 1.9 ENE 43 54 23 29 1023.7 1023.8 0.0
30/01:00pm 13.7 5.4 10.1 79 1.9 NE 44 54 24 29 1024.0 1024.1 0.0
30/12:30pm 13.7 5.2 10.5 81 1.7 NE 46 52 25 28 1024.6 1024.7 0.0
30/12:00pm 14.3 6.3 11.1 81 1.7 NE 44 54 24 29 1025.1 1025.2 0.0
30/11:30am 13.9 6.5 11.1 83 1.5 NE 41 50 22 27 1025.5 1025.6 0.0
30/11:00am 13.7 6.3 11.2 85 1.3 ENE 41 50 22 27 1025.7 1025.8 0.0
30/10:30am 13.5 6.5 11.2 86 1.2 ENE 39 48 21 26 1026.0 1026.1 0.0
30/10:07am 13.5 6.6 11.6 88 1.0 ENE 39 50 21 27 1026.2 1026.3 0.0
30/10:00am 13.5 6.6 11.7 89 1.0 ENE 39 50 21 27 1026.3 1026.4 0.0
30/09:30am 13.3 7.3 12.2 93 0.6 ENE 35 46 19 25 1026.8 1026.9 0.0
30/09:00am 12.5 6.7 11.6 94 0.5 ENE 33 43 18 23 1027.0 1027.1 0.2
30/08:30am 12.2 6.5 11.3 94 0.5 ENE 32 41 17 22 1027.3 1027.5 0.2
30/08:00am 11.6 5.8 10.8 95 0.4 ENE 32 39 17 21 1027.3 1027.5 0.2
30/07:30am 11.3 5.8 10.5 95 0.4 ENE 30 37 16 20 1027.3 1027.5 0.2
30/07:00am 11.2 5.3 10.4 95 0.4 ENE 32 39 17 21 1027.2 1027.3 0.2
30/06:30am 11.2 5.3 10.4 95 0.4 ENE 32 37 17 20 1027.3 1027.5 0.2
30/06:00am 11.4 6.3 10.6 95 0.4 ENE 28 33 15 18 1027.4 1027.6 0.2
30/05:30am 11.3 6.2 10.7 96 0.3 ENE 28 35 15 19 1027.2 1027.3 0.2
30/05:00am 11.3 6.6 10.5 95 0.4 ENE 26 33 14 18 1027.0 1027.1 0.2
30/04:30am 11.5 7.2 10.7 95 0.4 ENE 24 30 13 16 1027.0 1027.1 0.2
30/04:00am 11.5 6.8 10.7 95 0.4 ENE 26 32 14 17 1027.2 1027.3 0.2
30/03:30am 11.2 6.0 10.4 95 0.4 ENE 28 33 15 18 1027.3 1027.5 0.2
30/03:00am 11.3 5.8 10.5 95 0.4 ENE 30 35 16 19 1027.6 1027.8 0.0
30/02:48am 11.3 6.6 10.5 95 0.4 ENE 26 33 14 18 1027.7 1027.9 0.0
30/02:43am 11.4 6.7 10.6 95 0.4 ENE 26 33 14 18 1027.8 1028.0 0.0
30/02:30am 11.3 6.2 10.5 95 0.4 ENE 28 35 15 19 1027.8 1028.0 0.0
30/02:00am 11.1 6.4 10.5 96 0.3 ENE 26 32 14 17 1028.0 1028.2 0.0
30/01:30am 11.2 6.0 10.4 95 0.4 ENE 28 33 15 18 1028.0 1028.2 0.0
30/01:00am 11.4 5.9 10.6 95 0.4 ENE 30 35 16 19 1028.2 1028.4 0.0
30/12:30am 11.4 7.4 10.6 95 0.4 ENE 22 26 12 14 1028.5 1028.7 0.0
30/12:00am 11.5 7.9 10.7 95 0.4 ENE 20 26 11 14 1028.7 1028.9 0.0
 
Date/Time
EST
Temp
°C
App
Temp
°C
Dew
Point
Rel
Hum
%
Delta-T
°C
Wind Press
QNH
hPa
Press
MSL
hPa
Rain
since 9 am
mm
Dir
 
Spd
km/h
Gust
km/h
Spd
kts
Gust
kts
29/11:30pm 11.5 7.6 10.7 95 0.4 ENE 22 28 12 15 1028.7 1028.9 0.0
29/11:00pm 11.3 7.7 10.4 94 0.5 ENE 20 26 11 14 1028.8 1029.0 0.0
29/10:30pm 11.1 8.0 10.2 94 0.5 ENE 17 20 9 11 1029.1 1029.3 0.0
29/10:00pm 11.1 8.4 10.3 95 0.4 ENE 15 19 8 10 1029.2 1029.4 0.0
29/09:30pm 11.2 8.5 10.3 94 0.5 ENE 15 17 8 9 1029.3 1029.5 0.0
29/09:00pm 11.4 8.7 10.5 94 0.5 ENE 15 20 8 11 1029.3 1029.5 0.0
29/08:30pm 11.3 8.6 10.4 94 0.5 ENE 15 19 8 10 1029.1 1029.3 0.0
29/08:00pm 10.8 7.2 9.9 94 0.5 ENE 19 24 10 13 1028.9 1029.1 0.0
29/07:53pm 10.9 7.3 10.0 94 0.5 ENE 19 22 10 12 1029.0 1029.2 0.0
29/07:30pm 10.9 7.2 10.0 94 0.5 ENE 20 22 11 12 1029.0 1029.2 0.0
29/07:00pm 10.5 6.6 9.4 93 0.5 ENE 20 20 11 11 1028.9 1029.1 0.0
29/06:30pm 10.6 6.9 9.5 93 0.6 ENE 19 20 10 11 1028.8 1029.0 0.0
29/06:00pm 11.0 6.8 9.8 92 0.6 ENE 22 26 12 14 1028.4 1028.6 0.0
29/05:30pm 11.5 7.7 9.9 90 0.8 NE 20 24 11 13 1028.3 1028.5 0.0
29/05:00pm 12.3 8.7 9.9 85 1.2 NE 19 20 10 11 1028.3 1028.5 0.0
29/04:30pm 13.0 9.8 10.0 82 1.5 NE 17 20 9 11 1028.2 1028.4 0.0
29/04:00pm 13.0 9.3 10.0 82 1.5 NE 20 22 11 12 1028.2 1028.4 0.0
29/03:30pm 13.4 9.8 9.8 79 1.9 NE 19 24 10 13 1028.2 1028.4 0.0
29/03:00pm 13.6 10.0 10.4 81 1.7 ENE 20 24 11 13 1028.3 1028.5 0.0
29/02:30pm 14.0 10.8 11.2 83 1.5 NE 19 22 10 12 1028.8 1029.0 0.0
29/02:00pm 13.8 10.2 10.4 80 1.8 NE 20 22 11 12 1028.7 1028.9 0.0
29/01:30pm 14.1 10.8 10.9 81 1.7 NE 19 22 10 12 1028.8 1029.0 0.0
29/01:00pm 14.0 11.0 10.6 80 1.8 NNE 17 20 9 11 1028.9 1029.1 0.0
29/12:39pm 13.9 11.3 10.7 81 1.7 NNE 15 20 8 11 1029.1 1029.3 0.0
29/12:30pm 13.7 10.9 10.1 79 1.9 NNE 15 19 8 10 1029.2 1029.4 0.0
29/12:14pm 14.1 11.9 10.9 81 1.7 N 13 20 7 11 1029.3 1029.5 0.0
29/12:13pm 14.0 11.7 10.6 80 1.8 N 13 20 7 11 1029.3 1029.5 0.0
29/12:00pm 13.7 11.4 10.3 80 1.8 N 13 19 7 10 1029.4 1029.6 0.0
29/11:30am 13.9 11.2 10.5 80 1.8 N 15 19 8 10 1029.9 1030.0 0.0
29/11:00am 13.7 11.1 10.7 82 1.6 N 15 20 8 11 1029.9 1030.0 0.0
29/10:49am 13.3 10.6 10.5 83 1.5 N 15 19 8 10 1029.9 1030.0 0.0
29/10:30am 12.9 10.6 10.4 85 1.3 N 13 19 7 10 1030.0 1030.1 0.0
29/10:00am 12.0 9.7 10.6 91 0.7 N 13 17 7 9 1029.9 1030.0 0.0
29/09:30am 11.7 9.1 10.6 93 0.6 N 15 17 8 9 1030.0 1030.1 0.0
29/09:00am 11.4 8.8 10.6 95 0.4 N 15 19 8 10 1030.0 1030.1 0.0
29/08:30am 10.9 7.7 10.1 95 0.4 N 17 19 9 10 1029.8 1029.9 0.0
29/08:00am 10.0 7.0 9.2 95 0.4 N 15 15 8 8 1029.6 1029.8 0.0
29/07:30am 9.7 6.6 8.9 95 0.4 N 15 15 8 8 1029.2 1029.4 0.0
29/07:00am 9.4 6.2 8.6 95 0.4 N 15 15 8 8 1028.8 1029.0 0.0
29/06:30am 10.0 7.4 9.2 95 0.4 N 13 15 7 8 1028.6 1028.8 0.0
29/06:00am 9.6 7.6 8.8 95 0.4 N 9 11 5 6 1028.4 1028.6 0.0
29/05:49am 9.8 7.9 9.0 95 0.4 N 9 11 5 6 1028.3 1028.5 0.0
29/05:30am 9.3 6.8 8.4 94 0.4 N 11 11 6 6 1028.2 1028.4 0.0
29/05:16am 9.5 7.5 8.7 95 0.4 N 9 11 5 6 1028.1 1028.3 0.0
29/05:00am 9.8 8.2 8.9 94 0.4 N 7 9 4 5 1028.1 1028.3 0.0
29/04:30am 10.4 9.2 9.5 94 0.5 N 6 7 3 4 1028.2 1028.4 0.0
29/04:00am 10.2 8.7 9.3 94 0.4 N 7 7 4 4 1028.0 1028.2 0.0
29/03:30am 10.4 8.6 9.5 94 0.5 N 9 11 5 6 1027.8 1028.0 0.0
29/03:00am 10.2 8.4 9.3 94 0.4 N 9 11 5 6 1027.9 1028.1 0.0
29/02:30am 10.4 9.0 9.5 94 0.5 N 7 11 4 6 1027.9 1028.1 0.0
29/02:00am 10.7 8.6 9.8 94 0.5 N 11 13 6 7 1028.0 1028.2 0.0
29/01:30am 10.7 9.4 9.8 94 0.5 N 7 9 4 5 1028.3 1028.5 0.0
29/01:00am 10.9 9.2 9.8 93 0.6 N 9 11 5 6 1028.4 1028.6 0.0
29/12:30am 10.9 9.6 9.8 93 0.6 N 7 9 4 5 1028.6 1028.8 0.0
29/12:00am 10.9 9.2 9.8 93 0.6 N 9 9 5 5 1028.6 1028.8 0.0
 
Date/Time
EST
Temp
°C
App
Temp
°C
Dew
Point
Rel
Hum
%
Delta-T
°C
Wind Press
QNH
hPa
Press
MSL
hPa
Rain
since 9 am
mm
Dir
 
Spd
km/h
Gust
km/h
Spd
kts
Gust
kts
28/11:30pm 10.7 8.6 9.6 93 0.6 N 11 11 6 6 1028.4 1028.6 0.0
28/11:00pm 10.7 8.5 9.5 92 0.6 N 11 11 6 6 1028.4 1028.6 0.0
28/10:30pm 10.9 8.8 9.7 92 0.6 N 11 13 6 7 1028.5 1028.7 0.0
28/10:00pm 11.0 8.9 9.8 92 0.6 N 11 13 6 7 1028.5 1028.7 0.0
28/09:30pm 11.0 8.9 9.6 91 0.7 N 11 13 6 7 1028.5 1028.7 0.0
28/09:00pm 10.9 8.7 9.2 89 0.8 N 11 13 6 7 1028.6 1028.8 0.0
28/08:30pm 10.9 9.0 9.2 89 0.9 N 9 11 5 6 1028.4 1028.6 0.0
28/08:00pm 10.8 8.9 8.9 88 0.9 N 9 9 5 5 1028.3 1028.5 0.0
28/07:30pm 11.0 10.0 8.9 87 1.0 N 4 6 2 3 1028.1 1028.3 0.0
28/07:00pm 11.3 9.8 9.0 86 1.1 N 7 9 4 5 1028.1 1028.3 0.0
28/06:30pm 11.3 9.4 9.2 87 1.1 N 9 11 5 6 1027.9 1028.1 0.0
28/06:00pm 11.1 8.4 8.8 86 1.1 N 13 15 7 8 1027.7 1027.9 0.0
28/05:30pm 11.0 8.5 8.4 84 1.3 N 11 15 6 8 1027.6 1027.8 0.0
28/05:00pm 11.9 8.8 8.7 81 1.6 N 15 20 8 11 1027.4 1027.6 0.0
28/04:30pm 12.3 8.8 8.8 79 1.8 NNE 17 20 9 11 1027.3 1027.5 0.0
28/04:00pm 12.7 9.2 8.6 76 2.0 NNE 17 20 9 11 1027.3 1027.5 0.0
28/03:30pm 12.6 8.6 8.1 74 2.2 N 19 28 10 15 1027.2 1027.3 0.0
28/03:00pm 12.6 8.8 7.7 72 2.4 NNW 17 22 9 12 1027.3 1027.5 0.0
28/02:30pm 13.1 9.3 9.2 77 2.0 NNW 19 22 10 12 1027.4 1027.6 0.0
28/02:00pm 13.3 10.0 9.7 79 1.8 NNW 17 20 9 11 1027.4 1027.6 0.0
28/01:30pm 12.6 9.2 9.2 80 1.7 NNW 17 19 9 10 1027.5 1027.7 0.0
28/01:00pm 13.2 9.4 9.1 76 2.1 N 19 20 10 11 1027.8 1028.0 0.0
28/12:30pm 13.2 10.2 9.3 77 2.0 N 15 19 8 10 1028.1 1028.3 0.0
28/12:00pm 13.2 9.8 9.3 77 2.0 N 17 20 9 11 1028.4 1028.6 0.0
28/11:30am 13.5 - - - - NNE 17 20 9 11 1028.7 1028.9 0.0
28/11:00am 13.8 - - - - NNE 15 19 8 10 1028.8 1029.0 0.0
28/10:30am 12.9 - - - - NNE 15 19 8 10 1029.0 1029.2 0.0
28/10:00am 13.2 - - - - NNE 15 20 8 11 1029.1 1029.3 0.0
28/09:30am 12.7 - - - - NE 15 17 8 9 1029.2 1029.4 0.0
28/09:00am 12.7 - - - - NE 13 17 7 9 1029.0 1029.2 0.0
28/08:30am 12.1 - - - - NE 9 11 5 6 1028.9 - 0.0
28/08:00am 11.5 - - - - NE 9 13 5 7 1028.8 1029.0 0.0
28/07:30am 11.1 - - - - NE 11 13 6 7 1028.5 - 0.0
28/07:00am 11.0 - - - - NE 11 13 6 7 1028.3 1028.5 0.0
28/06:30am 11.2 - - - - NE 13 15 7 8 1028.1 - 0.0
28/06:00am 11.1 - - - - NE 13 15 7 8 1028.0 1028.2 0.0
28/05:30am 11.1 - - - - NE 13 15 7 8 1027.8 - 0.0
28/05:00am 11.1 - - - - NE 11 13 6 7 1027.9 1028.1 0.0
28/04:30am 11.1 - - - - NE 13 17 7 9 1027.8 - 0.0
28/04:00am 11.0 - - - - NE 9 11 5 6 1027.9 1028.1 0.0
28/03:30am 11.0 - - - - NE 11 11 6 6 1027.9 - 0.0
28/03:00am 11.1 - - - - NE 11 13 6 7 1027.9 1028.1 0.0
28/02:30am 11.2 - - - - NE 13 19 7 10 1028.0 - 0.0
28/02:00am 11.0 - - - - NE 11 15 6 8 1028.1 1028.3 0.0
28/01:30am 11.0 - - - - NE 13 17 7 9 1028.2 - 0.0
28/01:00am 10.5 - - - - NE 15 19 8 10 1028.3 1028.5 0.0
28/12:30am 10.9 - - - - NE 9 13 5 7 1028.7 - 0.0
28/12:00am 10.3 - - - - NE 15 17 8 9 1028.4 1028.6 0.0
 
Date/Time
EST
Temp
°C
App
Temp
°C
Dew
Point
Rel
Hum
%
Delta-T
°C
Wind Press
QNH
hPa
Press
MSL
hPa
Rain
since 9 am
mm
Dir
 
Spd
km/h
Gust
km/h
Spd
kts
Gust
kts
27/11:30pm 10.8 - - - - NE 15 20 8 11 1028.4 - 0.0
27/11:00pm 10.5 - - - - NE 13 15 7 8 1028.5 1028.7 0.0
27/10:30pm 11.4 - - - - NE 9 13 5 7 1028.6 - 0.0
27/10:00pm 11.4 - - - - NE 11 17 6 9 1028.6 1028.8 0.0
27/09:30pm 11.5 - - - - NNE 13 17 7 9 1028.6 - 0.0
27/09:00pm 11.5 - - - - NNE 13 13 7 7 1028.7 1028.9 0.0
27/08:30pm 11.3 - - - - NNE 15 17 8 9 1028.5 - 0.0
27/08:00pm 11.8 - - - - N 17 20 9 11 1028.4 1028.6 0.0
27/07:30pm 11.7 - - - - NNE 17 20 9 11 1028.2 - 0.0
27/07:00pm 11.6 - - - - NNE 15 17 8 9 1028.2 1028.4 0.0
27/06:30pm 11.7 - - - - NE 20 26 11 14 1027.7 - 0.0
27/06:00pm 12.1 - - - - NE 20 26 11 14 1027.7 1027.9 0.0
27/05:30pm 12.3 - - - - NE 26 32 14 17 1027.2 - 0.0
27/05:00pm 12.3 - - - - NE 24 32 13 17 1027.0 1027.1 0.0
27/04:30pm 12.9 - - - - ENE 28 35 15 19 1026.6 - 0.0
27/04:14pm 12.8 - - - - ENE 30 37 16 20 1026.6 - 0.0

Other Formats:

Comma delimited format used in spreadsheet applications
http://www.bom.gov.au/fwo/IDT60801/IDT60801.95954.axf

JavaScript Object Notation format (JSON) in row-major order
http://www.bom.gov.au/fwo/IDT60801/IDT60801.95954.json